CYVQ

Details ICAO CYVQ (YVQ)
Name NORMAN WELLS
Region Canada
Timezone America/Yellowknife (UTC-6.0)
Plans Departing 14
Arriving 18
Stats Elevation 238 ft / 73 m (AMSL)
Location 65.281616° -126.798222°
Runways 1
Magnetic Variation 20.839° E
Sunrise 2018-05-22 10:33:55 UTC / 2018-05-22 04:33:55 Local
Sunset 2018-05-23 06:16:43 UTC / 2018-05-23 00:16:43 Local
Advertisement - Login to hide

Runways

ID Width Length Bearing (true) Bearing (mag) Surface Threshold Offset Overrun Length
09 150 ft / 46 m 5,977 ft / 1,822 m 118.74° 97.90° Asphalt 0 ft / 0 m 0 ft / 0 m
27 150 ft / 46 m 5,977 ft / 1,822 m 298.78° 277.94° Asphalt 0 ft / 0 m 0 ft / 0 m

Map

Weather


0- 5 10 15 20 25 30 35+ Temperature / ° C

Clouds and Precipitation
Forecast for 2018-05-22 12:00 UTC. Updated 5 hours ago

Ground ~20,000 ft ~40,000 ft Winds

METAR

CYVQ 221600Z 12004KT 090V160 30SM FEW040 SCT096 BKN130 BKN180 BKN250 14/03 A2956 RMK SC1AC4AC1AC1CI1 SC TR AC TR SLP013 DENSITY ALT 600FT

TAF

TAF CYVQ 221138Z 2212/2224 VRB03KT P6SM SCT070 BKN130 BECMG 2218/2220 27010KT FM222200 26010KT P6SM SCT130 RMK NXT FCST BY 221800Z

Frequencies

Tower 122.20 MHz MF
Approach 134.82 MHz EDMONTON CNTR
Warning: Do not use this data for real-world aviation or navigation. No guarantee of current accuracy is given.